createdAt,value
2023-05-09T00:00:48.936Z,12.55
2023-05-09T00:03:18.404Z,13.63
2023-05-09T00:05:47.126Z,13.27
2023-05-09T00:08:15.260Z,12.40
2023-05-09T00:10:43.292Z,11.38
2023-05-09T00:13:12.202Z,11.50
2023-05-09T00:15:40.309Z,11.13
2023-05-09T00:18:08.798Z,10.13
2023-05-09T00:20:38.227Z,12.43
2023-05-09T00:23:06.694Z,10.65
2023-05-09T00:25:34.906Z,11.68
2023-05-09T00:28:03.069Z,10.88
2023-05-09T00:30:31.111Z,12.30
2023-05-09T00:32:59.166Z,13.13
2023-05-09T00:35:27.264Z,10.80
2023-05-09T00:37:56.657Z,10.38
2023-05-09T00:40:24.761Z,9.95
2023-05-09T00:42:52.831Z,10.73
2023-05-09T00:45:20.995Z,10.82
2023-05-09T00:47:49.132Z,11.05
2023-05-09T00:50:17.234Z,10.57
2023-05-09T00:52:45.382Z,9.77
2023-05-09T00:55:16.357Z,11.80
2023-05-09T00:57:44.640Z,10.27
2023-05-09T01:00:14.061Z,10.43
2023-05-09T01:02:43.104Z,11.90
2023-05-09T01:05:12.632Z,9.88
2023-05-09T01:07:49.501Z,9.00
2023-05-09T01:10:26.867Z,11.18
2023-05-09T01:13:02.063Z,10.55
2023-05-09T01:15:35.069Z,10.82
2023-05-09T01:18:08.235Z,12.05
2023-05-09T01:20:40.159Z,11.25
2023-05-09T01:26:04.056Z,13.32
2023-05-09T01:28:48.252Z,12.90
2023-05-09T01:31:18.597Z,12.43
2023-05-09T01:33:53.609Z,10.70
2023-05-09T01:36:23.765Z,16.15
2023-05-09T01:38:53.568Z,11.13
2023-05-09T01:41:25.825Z,10.63
2023-05-09T01:43:56.461Z,11.45
2023-05-09T01:46:28.275Z,11.70
2023-05-09T01:51:25.887Z,11.15
2023-05-09T01:53:55.963Z,10.77
2023-05-09T01:56:25.607Z,13.20
2023-05-09T01:58:54.969Z,12.68
2023-05-09T02:01:25.138Z,13.13
2023-05-09T02:03:55.252Z,11.85
2023-05-09T02:06:25.457Z,11.88
2023-05-09T02:08:53.530Z,10.27
2023-05-09T02:11:21.578Z,10.65
2023-05-09T02:13:50.688Z,10.48
2023-05-09T02:16:20.632Z,10.75
2023-05-09T02:18:50.264Z,9.60
2023-05-09T02:21:18.371Z,10.00
2023-05-09T02:23:46.518Z,10.85
2023-05-09T02:26:15.552Z,12.57
2023-05-09T02:28:46.455Z,11.93
2023-05-09T02:31:15.551Z,9.97
2023-05-09T02:33:45.013Z,10.25
2023-05-09T02:36:16.571Z,9.90
2023-05-09T02:38:45.489Z,10.63
2023-05-09T02:41:15.184Z,11.52
2023-05-09T02:43:43.317Z,11.63
2023-05-09T02:46:11.705Z,10.15
2023-05-09T02:48:39.813Z,12.40
2023-05-09T02:51:07.986Z,11.00
2023-05-09T02:53:37.439Z,12.38
2023-05-09T02:56:05.913Z,11.93
2023-05-09T02:58:33.947Z,13.55
2023-05-09T03:01:01.976Z,13.27
2023-05-09T03:03:30.164Z,11.90
2023-05-09T03:05:58.322Z,9.98
2023-05-09T03:08:26.369Z,12.55
2023-05-09T03:10:55.773Z,11.27
2023-05-09T03:13:23.886Z,11.88
2023-05-09T03:15:52.030Z,11.25
2023-05-09T03:18:20.092Z,9.75
2023-05-09T03:20:48.119Z,11.20
2023-05-09T03:23:16.149Z,11.82
2023-05-09T03:25:44.171Z,12.45
2023-05-09T03:28:13.574Z,10.52
2023-05-09T03:30:41.712Z,12.90
2023-05-09T03:33:09.873Z,11.32
2023-05-09T03:35:37.941Z,11.90
2023-05-09T03:38:06.263Z,13.35
2023-05-09T03:40:34.403Z,11.48
2023-05-09T03:43:02.464Z,12.25
2023-05-09T03:45:31.886Z,12.57
2023-05-09T03:48:00.205Z,12.60
2023-05-09T03:50:28.320Z,11.93
2023-05-09T03:52:57.054Z,11.90
2023-05-09T03:55:25.130Z,11.48
2023-05-09T03:57:53.219Z,12.73
2023-05-09T04:00:21.830Z,14.32
2023-05-09T04:02:51.556Z,14.38
2023-05-09T04:05:20.044Z,12.38
2023-05-09T04:07:48.158Z,12.05
2023-05-09T04:10:16.743Z,11.45
2023-05-09T04:12:44.823Z,12.45
2023-05-09T04:15:13.378Z,11.55
2023-05-09T04:17:41.782Z,12.27
2023-05-09T04:20:12.889Z,11.55
2023-05-09T04:22:40.953Z,10.93
2023-05-09T04:25:12.516Z,11.85
2023-05-09T04:27:40.726Z,13.77
2023-05-09T04:30:10.420Z,11.38
2023-05-09T04:32:38.684Z,13.10
2023-05-09T04:35:08.236Z,13.50
2023-05-09T04:37:37.762Z,11.05
2023-05-09T04:40:07.280Z,12.27
2023-05-09T04:42:36.069Z,13.73
2023-05-09T04:45:04.288Z,13.05
2023-05-09T04:47:32.377Z,13.65
2023-05-09T04:50:00.478Z,14.38
2023-05-09T04:52:28.500Z,12.23
2023-05-09T04:54:57.907Z,15.25
2023-05-09T04:57:25.948Z,13.23
2023-05-09T04:59:54.050Z,14.02
2023-05-09T05:02:22.395Z,15.38
2023-05-09T05:04:50.568Z,15.15
2023-05-09T05:07:18.679Z,14.55
2023-05-09T05:09:46.745Z,14.02
2023-05-09T05:12:16.285Z,15.82
2023-05-09T05:14:44.373Z,15.38
2023-05-09T05:17:12.431Z,13.98
2023-05-09T05:19:40.540Z,17.17
2023-05-09T05:22:08.571Z,13.27
2023-05-09T05:24:36.621Z,16.88
2023-05-09T05:27:04.698Z,14.55
2023-05-09T05:29:34.108Z,15.18
2023-05-09T05:32:02.229Z,12.65
2023-05-09T05:34:30.438Z,13.40
2023-05-09T05:36:58.467Z,12.77
2023-05-09T05:39:26.561Z,13.80
2023-05-09T05:41:54.872Z,13.32
2023-05-09T05:44:22.909Z,11.80
2023-05-09T05:46:52.309Z,11.85
2023-05-09T05:49:20.357Z,10.52
2023-05-09T05:51:48.464Z,9.25
2023-05-09T05:54:16.539Z,12.95
2023-05-09T05:56:44.595Z,8.70
2023-05-09T05:59:13.345Z,9.35
2023-05-09T06:01:41.920Z,8.90
2023-05-09T06:04:11.474Z,9.65
2023-05-09T06:06:39.657Z,8.57
2023-05-09T06:09:07.763Z,10.00
2023-05-09T06:11:35.844Z,11.43
2023-05-09T06:14:03.909Z,8.95
2023-05-09T06:16:32.046Z,8.27
2023-05-09T06:19:00.136Z,8.38
2023-05-09T06:21:29.552Z,8.52
2023-05-09T06:24:09.866Z,8.65
2023-05-09T06:26:42.445Z,9.02
2023-05-09T06:29:10.817Z,9.73
2023-05-09T06:31:40.851Z,8.68
2023-05-09T06:34:09.421Z,8.85
2023-05-09T06:36:38.829Z,7.20
2023-05-09T06:39:06.882Z,9.90
2023-05-09T06:41:34.946Z,7.55
2023-05-09T06:44:03.203Z,8.57
2023-05-09T06:46:31.317Z,9.15
2023-05-09T06:49:01.714Z,8.43
2023-05-09T06:51:29.804Z,8.45
2023-05-09T06:53:59.220Z,10.00
2023-05-09T06:56:27.257Z,9.82
2023-05-09T06:58:55.453Z,8.65
2023-05-09T07:01:23.689Z,10.52
2023-05-09T07:03:52.172Z,8.40
2023-05-09T07:06:20.685Z,9.52
2023-05-09T07:08:48.715Z,9.55
2023-05-09T07:11:18.205Z,8.73
2023-05-09T07:13:46.333Z,10.95
2023-05-09T07:16:14.562Z,11.50
2023-05-09T07:18:42.575Z,9.55
2023-05-09T07:21:10.605Z,8.77
2023-05-09T07:23:38.617Z,12.57
2023-05-09T07:26:06.714Z,12.50
2023-05-09T07:28:36.116Z,9.15
2023-05-09T07:31:05.825Z,8.18
2023-05-09T07:33:33.919Z,10.77
2023-05-09T07:36:02.123Z,11.52
2023-05-09T07:38:30.170Z,13.52
2023-05-09T07:40:58.190Z,11.68
2023-05-09T07:43:26.277Z,11.05
2023-05-09T07:45:55.885Z,11.43
2023-05-09T07:48:24.022Z,10.18
2023-05-09T07:50:52.136Z,10.90
2023-05-09T07:53:20.195Z,13.05
2023-05-09T07:55:50.140Z,12.35
2023-05-09T07:58:18.356Z,11.98
2023-05-09T08:00:46.433Z,11.80
2023-05-09T08:03:16.040Z,10.15
2023-05-09T08:05:44.264Z,13.23
2023-05-09T08:08:12.305Z,11.55
2023-05-09T08:10:40.328Z,11.02
2023-05-09T08:13:08.467Z,13.60
2023-05-09T08:15:36.555Z,13.10
2023-05-09T08:18:04.727Z,12.77
2023-05-09T08:20:34.563Z,10.35
2023-05-09T08:23:02.740Z,11.38
2023-05-09T08:25:30.853Z,13.95
2023-05-09T08:27:58.879Z,11.80
2023-05-09T08:30:29.209Z,12.00
2023-05-09T08:32:57.497Z,14.25
2023-05-09T08:35:25.799Z,13.23
2023-05-09T08:37:55.204Z,10.90
2023-05-09T08:40:23.426Z,11.57
2023-05-09T08:42:52.042Z,10.15
2023-05-09T08:45:30.342Z,11.15
2023-05-09T08:47:59.527Z,11.02
2023-05-09T08:50:27.697Z,10.75
2023-05-09T08:52:57.560Z,11.13
2023-05-09T08:55:26.413Z,11.70
2023-05-09T08:57:54.920Z,11.38
2023-05-09T09:00:23.489Z,10.18
2023-05-09T09:02:53.159Z,12.65
2023-05-09T09:05:39.984Z,11.77
2023-05-09T09:08:12.344Z,11.52
2023-05-09T09:10:43.180Z,10.68
2023-05-09T09:13:12.602Z,12.02
2023-05-09T09:15:42.739Z,10.63
2023-05-09T09:18:13.723Z,12.02
2023-05-09T09:20:49.007Z,13.57
2023-05-09T09:23:24.111Z,11.60
2023-05-09T09:25:59.963Z,11.82
2023-05-09T09:28:28.575Z,12.70
2023-05-09T09:30:57.085Z,13.48
2023-05-09T09:33:26.218Z,11.68
2023-05-09T09:35:55.735Z,9.40
2023-05-09T09:38:27.194Z,9.15
2023-05-09T09:40:56.215Z,11.13
2023-05-09T09:43:29.142Z,10.60
2023-05-09T09:45:58.234Z,10.15
2023-05-09T09:48:26.964Z,10.82
2023-05-09T09:50:56.923Z,9.35
2023-05-09T09:53:30.203Z,13.50
2023-05-09T09:55:58.514Z,10.18
2023-05-09T09:58:26.641Z,10.00
2023-05-09T10:01:08.112Z,10.05
2023-05-09T10:03:40.706Z,10.43
2023-05-09T10:06:12.168Z,10.40
2023-05-09T10:08:41.640Z,12.68
2023-05-09T10:11:10.925Z,12.57
2023-05-09T10:13:39.541Z,11.38
2023-05-09T10:16:09.965Z,11.15
2023-05-09T10:18:38.778Z,11.45
2023-05-09T10:21:09.061Z,11.90
2023-05-09T10:23:39.370Z,11.10
2023-05-09T10:26:18.219Z,9.15
2023-05-09T10:28:48.941Z,11.57
2023-05-09T10:31:21.999Z,12.52
2023-05-09T10:33:51.586Z,11.00
2023-05-09T10:36:21.498Z,10.60
2023-05-09T10:38:50.251Z,10.43
2023-05-09T10:41:21.925Z,10.02
2023-05-09T10:43:50.235Z,10.05
2023-05-09T10:46:18.546Z,9.38
2023-05-09T10:48:48.751Z,10.55
2023-05-09T10:51:18.267Z,9.43
2023-05-09T10:53:47.890Z,9.13
2023-05-09T10:56:27.992Z,10.02
2023-05-09T10:58:56.489Z,10.32
2023-05-09T11:01:34.678Z,10.48
2023-05-09T11:04:09.452Z,10.38
2023-05-09T11:06:51.793Z,9.50
2023-05-09T11:09:33.314Z,9.35
2023-05-09T11:12:13.765Z,10.88
2023-05-09T11:14:44.510Z,11.15
2023-05-09T11:17:14.212Z,9.90
2023-05-09T11:20:03.476Z,9.23
2023-05-09T11:22:33.225Z,10.05
2023-05-09T11:25:05.656Z,11.13
2023-05-09T11:27:52.009Z,12.05
2023-05-09T11:30:21.932Z,10.35
2023-05-09T11:32:53.420Z,10.27
2023-05-09T11:37:54.971Z,8.75
2023-05-09T11:40:24.037Z,9.27
2023-05-09T11:42:58.035Z,10.20
2023-05-09T11:45:28.263Z,11.85
2023-05-09T11:47:57.052Z,9.02
2023-05-09T11:50:25.632Z,9.77
2023-05-09T11:52:55.239Z,10.20
2023-05-09T11:55:25.153Z,9.60
2023-05-09T11:57:55.716Z,7.90
2023-05-09T12:00:25.354Z,8.82
2023-05-09T12:02:54.247Z,8.27
2023-05-09T12:05:23.544Z,9.50
2023-05-09T12:07:52.303Z,8.60
2023-05-09T12:10:23.208Z,8.90
2023-05-09T12:12:52.579Z,7.28
2023-05-09T12:15:22.344Z,7.72
2023-05-09T12:18:03.977Z,7.20
2023-05-09T12:20:42.304Z,8.90
2023-05-09T12:23:12.065Z,7.30
2023-05-09T12:25:40.146Z,8.43
2023-05-09T12:28:08.622Z,8.68
2023-05-09T12:30:38.161Z,14.63
2023-05-09T12:33:06.378Z,11.48
2023-05-09T12:35:35.467Z,9.65
2023-05-09T12:38:03.679Z,9.90
2023-05-09T12:40:31.831Z,9.13
2023-05-09T12:43:02.605Z,12.55
2023-05-09T12:45:33.670Z,12.10
2023-05-09T12:48:04.749Z,9.23
2023-05-09T12:50:34.875Z,9.25
2023-05-09T12:53:04.243Z,9.63
2023-05-09T12:55:32.936Z,11.52
2023-05-09T12:58:03.401Z,8.70
2023-05-09T13:00:43.565Z,10.67
2023-05-09T13:03:25.243Z,10.45
2023-05-09T13:05:58.117Z,9.23
2023-05-09T13:08:26.518Z,9.45
2023-05-09T13:11:03.865Z,8.10
2023-05-09T13:16:06.932Z,8.15
2023-05-09T13:18:37.659Z,8.02
2023-05-09T13:21:05.762Z,9.07
2023-05-09T13:23:33.808Z,9.05
2023-05-09T13:26:01.853Z,9.23
2023-05-09T13:28:29.886Z,9.50
2023-05-09T13:30:59.149Z,10.77
2023-05-09T13:33:27.649Z,8.50
2023-05-09T13:35:57.137Z,9.32
2023-05-09T13:38:25.636Z,7.13
2023-05-09T13:40:53.811Z,8.75
2023-05-09T13:43:21.834Z,7.72
2023-05-09T13:45:49.931Z,8.18
2023-05-09T13:48:17.982Z,6.75
2023-05-09T13:50:46.018Z,8.50
2023-05-09T13:53:15.512Z,7.32
2023-05-09T13:55:43.724Z,8.23
2023-05-09T13:58:11.832Z,8.10
2023-05-09T14:00:39.935Z,7.88
2023-05-09T14:03:09.123Z,9.77
2023-05-09T14:05:37.268Z,7.18
2023-05-09T14:08:07.916Z,6.65
2023-05-09T14:10:37.413Z,7.27
2023-05-09T14:13:05.564Z,6.63
2023-05-09T14:15:33.707Z,9.15
2023-05-09T14:18:02.058Z,7.18
2023-05-09T14:20:30.179Z,6.10
2023-05-09T14:23:00.605Z,7.20
2023-05-09T14:25:29.359Z,5.88
2023-05-09T14:27:59.400Z,5.30
2023-05-09T14:30:27.688Z,5.85
2023-05-09T14:32:55.733Z,5.55
2023-05-09T14:35:23.895Z,6.05
2023-05-09T14:37:52.000Z,6.20
2023-05-09T14:40:21.092Z,6.80
2023-05-09T14:42:49.479Z,5.43
2023-05-09T14:45:18.974Z,5.03
2023-05-09T14:47:48.099Z,5.05
2023-05-09T14:50:16.966Z,4.95
2023-05-09T14:52:45.500Z,5.53
2023-05-09T14:55:13.568Z,8.27
2023-05-09T14:57:41.689Z,5.35
2023-05-09T15:00:20.407Z,7.03
2023-05-09T15:02:51.399Z,5.57
2023-05-09T15:05:19.658Z,5.15
2023-05-09T15:07:47.813Z,5.13
2023-05-09T15:10:16.102Z,5.30
2023-05-09T15:12:44.894Z,5.82
2023-05-09T15:15:18.067Z,6.00
2023-05-09T15:17:46.897Z,6.43
2023-05-09T15:20:17.604Z,6.38
2023-05-09T15:22:46.694Z,6.93
2023-05-09T15:25:15.251Z,8.75
2023-05-09T15:27:43.569Z,7.18
2023-05-09T15:30:12.676Z,7.38
2023-05-09T15:32:41.135Z,7.45
2023-05-09T15:35:09.916Z,7.88
2023-05-09T15:37:39.353Z,7.30
2023-05-09T15:40:09.206Z,10.93
2023-05-09T15:42:37.636Z,8.10
2023-05-09T15:45:06.529Z,6.47
2023-05-09T15:47:34.682Z,9.57
2023-05-09T15:50:03.069Z,6.22
2023-05-09T15:52:31.253Z,6.22
2023-05-09T15:55:00.931Z,8.38
2023-05-09T15:57:29.117Z,10.38
2023-05-09T15:59:57.144Z,8.20
2023-05-09T16:02:25.273Z,6.68
2023-05-09T16:04:53.371Z,7.45
2023-05-09T16:07:21.939Z,6.43
2023-05-09T16:09:50.091Z,7.00
2023-05-09T16:12:19.516Z,7.15
2023-05-09T16:14:47.548Z,5.85
2023-05-09T16:17:15.573Z,6.60
2023-05-09T16:19:43.668Z,7.00
2023-05-09T16:22:11.872Z,6.03
2023-05-09T16:24:40.208Z,6.80
2023-05-09T16:27:08.337Z,6.88
2023-05-09T16:29:37.778Z,6.95
2023-05-09T16:32:06.213Z,7.30
2023-05-09T16:34:34.309Z,8.07
2023-05-09T16:37:02.680Z,9.50
2023-05-09T16:39:31.072Z,7.50
2023-05-09T16:41:59.588Z,7.32
2023-05-09T16:44:27.813Z,7.60
2023-05-09T16:46:57.306Z,7.75
2023-05-09T16:49:25.362Z,8.73
2023-05-09T16:51:53.442Z,7.70
2023-05-09T16:54:21.485Z,8.80
2023-05-09T16:56:49.515Z,9.32
2023-05-09T16:59:18.657Z,6.82
2023-05-09T17:01:47.517Z,7.13
2023-05-09T17:04:17.194Z,8.98
2023-05-09T17:06:45.303Z,7.47
2023-05-09T17:09:13.348Z,6.55
2023-05-09T17:11:41.514Z,8.48
2023-05-09T17:14:09.582Z,8.20
2023-05-09T17:16:38.284Z,6.15
2023-05-09T17:19:06.484Z,6.25
2023-05-09T17:21:37.786Z,6.80
2023-05-09T17:24:06.194Z,8.32
2023-05-09T17:26:34.979Z,6.60
2023-05-09T17:29:04.018Z,5.85
2023-05-09T17:31:32.423Z,5.85
2023-05-09T17:34:01.422Z,7.00
2023-05-09T17:36:29.816Z,8.40
2023-05-09T17:38:59.234Z,7.72
2023-05-09T17:41:27.259Z,7.13
2023-05-09T17:43:57.199Z,5.82
2023-05-09T17:46:25.755Z,6.43
2023-05-09T17:48:53.829Z,6.90
2023-05-09T17:51:21.925Z,8.15
2023-05-09T17:53:50.158Z,6.32
2023-05-09T17:56:19.634Z,5.53
2023-05-09T17:58:47.944Z,5.38
2023-05-09T18:01:15.988Z,6.88
2023-05-09T18:03:44.153Z,6.85
2023-05-09T18:06:12.430Z,7.05
2023-05-09T18:08:40.482Z,6.65
2023-05-09T18:11:08.583Z,6.40
2023-05-09T18:13:38.015Z,5.85
2023-05-09T18:16:06.522Z,7.82
2023-05-09T18:18:36.409Z,8.68
2023-05-09T18:21:05.469Z,7.03
2023-05-09T18:23:33.508Z,6.30
2023-05-09T18:26:01.791Z,5.25
2023-05-09T18:28:29.920Z,5.82
2023-05-09T18:31:01.312Z,6.63
2023-05-09T18:33:29.949Z,7.18
2023-05-09T18:35:57.974Z,6.38
2023-05-09T18:38:26.053Z,5.47
2023-05-09T18:40:54.098Z,6.32
2023-05-09T18:43:22.264Z,6.60
2023-05-09T18:45:51.832Z,49.33
2023-05-09T18:48:21.597Z,14.05
2023-05-09T18:50:52.284Z,9.68
2023-05-09T18:53:20.518Z,7.03
2023-05-09T18:55:48.957Z,8.38
2023-05-09T18:58:16.982Z,8.35
2023-05-09T19:00:46.378Z,8.00
2023-05-09T19:03:14.522Z,7.32
2023-05-09T19:05:44.008Z,9.15
2023-05-09T19:08:12.098Z,6.53
2023-05-09T19:10:40.321Z,7.07
2023-05-09T19:13:08.829Z,7.00
2023-05-09T19:15:36.952Z,6.47
2023-05-09T19:18:05.296Z,6.68
2023-05-09T19:20:33.336Z,7.97
2023-05-09T19:23:02.768Z,9.85
2023-05-09T19:25:33.732Z,9.32
2023-05-09T19:28:01.824Z,6.63
2023-05-09T19:30:29.927Z,9.00
2023-05-09T19:32:58.009Z,6.35
2023-05-09T19:35:26.372Z,6.32
2023-05-09T19:37:54.412Z,6.30
2023-05-09T19:40:23.805Z,8.52
2023-05-09T19:42:51.857Z,8.00
2023-05-09T19:45:20.440Z,6.05
2023-05-09T19:47:48.684Z,7.32
2023-05-09T19:50:16.975Z,8.02
2023-05-09T19:52:45.316Z,9.85
2023-05-09T19:55:13.960Z,46.92
2023-05-09T19:57:43.405Z,23.92
2023-05-09T20:00:12.647Z,12.20
2023-05-09T20:02:40.923Z,6.85
2023-05-09T20:05:09.801Z,7.35
2023-05-09T20:07:37.912Z,7.13
2023-05-09T20:10:06.921Z,8.13
2023-05-09T20:12:34.970Z,9.20
2023-05-09T20:15:05.520Z,15.23
2023-05-09T20:17:33.565Z,27.52
2023-05-09T20:20:01.643Z,12.95
2023-05-09T20:22:29.674Z,15.50
2023-05-09T20:24:57.705Z,9.30
2023-05-09T20:27:26.341Z,10.23
2023-05-09T20:29:54.393Z,7.75
2023-05-09T20:32:24.447Z,7.13
2023-05-09T20:34:52.521Z,8.15
2023-05-09T20:37:20.581Z,8.30
2023-05-09T20:39:48.708Z,8.52
2023-05-09T20:42:16.766Z,7.70
2023-05-09T20:44:44.792Z,8.18
2023-05-09T20:47:12.833Z,10.38
2023-05-09T20:49:42.274Z,9.20
2023-05-09T20:52:10.525Z,7.18
2023-05-09T20:54:38.601Z,8.35
2023-05-09T20:57:06.849Z,10.88
2023-05-09T20:59:35.034Z,12.32
2023-05-09T21:02:03.605Z,9.55
2023-05-09T21:04:31.730Z,9.65
2023-05-09T21:07:01.763Z,7.38
2023-05-09T21:09:29.824Z,8.95
2023-05-09T21:11:57.872Z,18.10
2023-05-09T21:14:25.904Z,25.75
2023-05-09T21:16:55.089Z,17.90
2023-05-09T21:19:23.225Z,22.60
2023-05-09T21:21:51.380Z,35.92
2023-05-09T21:24:20.844Z,29.02
2023-05-09T21:26:48.946Z,42.75
2023-05-09T21:29:17.019Z,26.85
2023-05-09T21:31:45.200Z,25.40
2023-05-09T21:34:13.417Z,28.88
2023-05-09T21:36:42.064Z,26.05
2023-05-09T21:39:10.422Z,26.92
2023-05-09T21:41:41.915Z,26.80
2023-05-09T21:44:11.260Z,17.50
2023-05-09T21:46:39.522Z,19.92
2023-05-09T21:49:07.686Z,24.38
2023-05-09T21:51:35.864Z,15.90
2023-05-09T21:54:03.977Z,11.43
2023-05-09T21:56:31.990Z,17.80
2023-05-09T21:59:01.397Z,13.68
2023-05-09T22:01:32.194Z,15.05
2023-05-09T22:04:00.346Z,9.60
2023-05-09T22:06:28.520Z,15.13
2023-05-09T22:08:56.550Z,14.77
2023-05-09T22:11:24.601Z,26.27
2023-05-09T22:13:52.644Z,15.60
2023-05-09T22:16:22.971Z,15.77
2023-05-09T22:18:51.361Z,16.15
2023-05-09T22:21:19.410Z,10.57
2023-05-09T22:23:47.501Z,10.45
2023-05-09T22:26:15.554Z,8.07
2023-05-09T22:28:43.608Z,8.35
2023-05-09T22:31:11.679Z,6.43
2023-05-09T22:33:41.296Z,6.35
2023-05-09T22:36:09.697Z,6.18
2023-05-09T22:38:37.746Z,4.65
2023-05-09T22:41:05.813Z,4.38
2023-05-09T22:43:39.350Z,4.57
2023-05-09T22:46:08.063Z,4.30
2023-05-09T22:48:36.193Z,4.50
2023-05-09T22:51:05.716Z,6.63
2023-05-09T22:53:33.789Z,6.05
2023-05-09T22:56:01.825Z,3.97
2023-05-09T22:58:29.882Z,4.63
2023-05-09T23:00:57.979Z,6.13
2023-05-09T23:03:26.270Z,5.25
2023-05-09T23:05:54.361Z,3.97
2023-05-09T23:08:23.794Z,4.20
2023-05-09T23:10:51.881Z,4.68
2023-05-09T23:13:20.061Z,7.10
2023-05-09T23:15:48.483Z,3.95
2023-05-09T23:18:16.552Z,4.38
2023-05-09T23:20:45.588Z,4.88
2023-05-09T23:23:13.646Z,4.35
2023-05-09T23:25:44.342Z,5.57
2023-05-09T23:28:12.442Z,4.32
2023-05-09T23:30:40.486Z,5.03
2023-05-09T23:33:08.580Z,5.20
2023-05-09T23:35:36.641Z,5.20
2023-05-09T23:38:04.917Z,5.05
2023-05-09T23:40:32.949Z,6.88
2023-05-09T23:43:02.424Z,3.72
2023-05-09T23:45:30.490Z,4.85
2023-05-09T23:47:58.605Z,5.15
2023-05-09T23:50:26.649Z,4.40
2023-05-09T23:52:54.706Z,4.13
2023-05-09T23:55:22.820Z,3.95
2023-05-09T23:57:50.934Z,3.95
